createdAt,value
2023-01-08T00:01:20.439Z,3.74
2023-01-08T00:03:50.364Z,3.78
2023-01-08T00:06:21.635Z,3.81
2023-01-08T00:08:49.759Z,3.84
2023-01-08T00:11:18.091Z,3.87
2023-01-08T00:13:46.511Z,3.86
2023-01-08T00:16:16.967Z,3.84
2023-01-08T00:18:46.655Z,3.84
2023-01-08T00:21:14.857Z,3.85
2023-01-08T00:23:42.999Z,3.87
2023-01-08T00:26:11.597Z,3.90
2023-01-08T00:28:40.374Z,3.89
2023-01-08T00:31:11.185Z,3.88
2023-01-08T00:33:41.117Z,3.84
2023-01-08T00:36:11.406Z,3.83
2023-01-08T00:38:39.421Z,3.81
2023-01-08T00:41:07.648Z,3.80
2023-01-08T00:43:36.511Z,3.76
2023-01-08T00:46:05.562Z,3.69
2023-01-08T00:48:37.448Z,3.60
2023-01-08T00:51:07.621Z,3.53
2023-01-08T00:53:38.290Z,3.49
2023-01-08T00:56:09.392Z,3.45
2023-01-08T00:58:37.635Z,3.41
2023-01-08T01:01:14.112Z,3.35
2023-01-08T01:03:42.802Z,3.27
2023-01-08T01:06:12.305Z,3.18
2023-01-08T01:08:41.188Z,3.13
2023-01-08T01:11:23.261Z,3.10
2023-01-08T01:13:52.071Z,3.09
2023-01-08T01:16:20.135Z,3.08
2023-01-08T01:18:49.185Z,3.06
2023-01-08T01:21:24.836Z,3.01
2023-01-08T01:24:01.455Z,2.95
2023-01-08T01:26:31.275Z,2.88
2023-01-08T01:29:00.210Z,2.85
2023-01-08T01:31:31.256Z,2.81
2023-01-08T01:33:59.603Z,2.77
2023-01-08T01:36:28.169Z,2.72
2023-01-08T01:38:57.616Z,2.67
2023-01-08T01:41:37.000Z,2.61
2023-01-08T01:48:43.522Z,2.52
2023-01-08T01:51:11.657Z,2.49
2023-01-08T01:53:41.876Z,2.44
2023-01-08T01:56:10.447Z,2.37
2023-01-08T01:58:38.466Z,2.30
2023-01-08T02:01:09.047Z,2.25
2023-01-08T02:03:39.329Z,2.23
2023-01-08T02:06:31.927Z,2.24
2023-01-08T02:09:22.632Z,2.25
2023-01-08T02:16:56.277Z,2.26
2023-01-08T02:19:58.825Z,2.24
2023-01-08T02:22:51.684Z,2.26
2023-01-08T02:25:54.087Z,2.29
2023-01-08T02:28:23.261Z,2.31
2023-01-08T02:30:51.287Z,2.34
2023-01-08T02:33:19.254Z,2.34
2023-01-08T02:36:11.147Z,2.32
2023-01-08T02:38:50.951Z,2.28
2023-01-08T02:41:24.679Z,2.26
2023-01-08T02:43:56.412Z,2.27
2023-01-08T02:46:32.598Z,2.30
2023-01-08T02:49:09.784Z,2.32
2023-01-08T02:51:44.853Z,2.33
2023-01-08T02:54:18.100Z,2.32
2023-01-08T02:56:52.729Z,2.29
2023-01-08T02:59:22.851Z,2.28
2023-01-08T03:01:51.508Z,2.31
2023-01-08T03:04:23.342Z,2.34
2023-01-08T03:06:51.855Z,2.36
2023-01-08T03:14:12.507Z,2.33
2023-01-08T03:16:48.992Z,2.31
2023-01-08T03:19:23.341Z,2.31
2023-01-08T03:21:53.277Z,2.31
2023-01-08T03:24:34.604Z,2.31
2023-01-08T03:27:07.102Z,2.34
2023-01-08T03:29:38.180Z,2.36
2023-01-08T03:32:11.696Z,2.35
2023-01-08T03:38:48.894Z,2.31
2023-01-08T03:41:21.259Z,2.33
2023-01-08T03:43:49.261Z,2.36
2023-01-08T03:46:24.296Z,2.36
2023-01-08T03:48:52.983Z,2.35
2023-01-08T03:51:21.065Z,2.32
2023-01-08T03:53:52.568Z,2.32
2023-01-08T03:56:20.579Z,2.33
2023-01-08T03:58:48.533Z,2.37
2023-01-08T04:01:16.608Z,2.39
2023-01-08T04:03:44.568Z,2.39
2023-01-08T04:06:12.548Z,2.37
2023-01-08T04:08:40.514Z,2.34
2023-01-08T04:11:08.491Z,2.33
2023-01-08T04:13:36.567Z,2.34
2023-01-08T04:16:04.948Z,2.32
2023-01-08T04:18:32.912Z,2.30
2023-01-08T04:21:01.562Z,2.28
2023-01-08T04:23:29.507Z,2.25
2023-01-08T04:25:57.503Z,2.19
2023-01-08T04:28:25.698Z,2.15
2023-01-08T04:30:53.737Z,2.17
2023-01-08T04:33:21.802Z,2.19
2023-01-08T04:35:49.747Z,2.21
2023-01-08T04:38:18.368Z,2.22
2023-01-08T04:40:46.381Z,2.19
2023-01-08T04:43:14.338Z,2.15
2023-01-08T04:45:42.439Z,2.12
2023-01-08T04:48:10.389Z,2.14
2023-01-08T04:50:38.449Z,2.16
2023-01-08T04:53:06.465Z,2.15
2023-01-08T04:55:34.569Z,2.13
2023-01-08T04:58:02.667Z,2.09
2023-01-08T05:00:30.908Z,2.02
2023-01-08T05:03:02.180Z,1.96
2023-01-08T05:05:30.330Z,1.97
2023-01-08T05:07:58.917Z,1.98
2023-01-08T05:14:39.595Z,1.87
2023-01-08T05:17:07.587Z,1.85
2023-01-08T05:19:37.584Z,1.85
2023-01-08T05:22:06.392Z,1.86
2023-01-08T05:24:35.192Z,1.88
2023-01-08T05:31:49.316Z,1.85
2023-01-08T05:34:17.327Z,1.82
2023-01-08T05:36:45.285Z,1.83
2023-01-08T05:40:30.916Z,1.84
2023-01-08T05:43:02.296Z,1.85
2023-01-08T05:46:48.905Z,1.86
2023-01-08T05:49:17.033Z,1.80
2023-01-08T05:51:45.217Z,1.75
2023-01-08T05:54:13.138Z,1.70
2023-01-08T05:56:44.036Z,1.69
2023-01-08T06:03:59.409Z,1.64
2023-01-08T06:06:27.388Z,1.61
2023-01-08T06:08:55.453Z,1.55
2023-01-08T06:11:23.407Z,1.50
2023-01-08T06:13:51.392Z,1.49
2023-01-08T06:16:21.096Z,1.49
2023-01-08T06:18:49.160Z,1.46
2023-01-08T06:21:17.139Z,1.43
2023-01-08T06:23:45.105Z,1.41
2023-01-08T06:26:13.112Z,1.38
2023-01-08T06:28:41.011Z,1.36
2023-01-08T06:31:08.991Z,1.36
2023-01-08T06:33:36.950Z,1.36
2023-01-08T06:36:05.618Z,1.33
2023-01-08T06:38:35.096Z,1.28
2023-01-08T06:41:05.223Z,1.23
2023-01-08T06:43:36.301Z,1.19
2023-01-08T06:46:08.972Z,1.13
2023-01-08T06:48:38.211Z,1.08
2023-01-08T06:51:06.754Z,1.06
2023-01-08T06:53:34.969Z,1.07
2023-01-08T06:56:04.844Z,1.08
2023-01-08T06:58:33.200Z,1.04
2023-01-08T07:01:01.251Z,0.99
2023-01-08T07:03:29.355Z,0.99
2023-01-08T07:05:57.662Z,1.02
2023-01-08T07:08:25.868Z,1.07
2023-01-08T07:10:54.238Z,1.13
2023-01-08T07:13:24.101Z,1.14
2023-01-08T07:15:52.203Z,1.14
2023-01-08T07:18:20.195Z,1.20
2023-01-08T07:20:51.151Z,1.24
2023-01-08T07:23:19.013Z,1.30
2023-01-08T07:25:47.692Z,1.37
2023-01-08T07:28:15.936Z,1.45
2023-01-08T07:30:44.855Z,1.51
2023-01-08T07:33:13.008Z,1.58
2023-01-08T07:35:41.094Z,1.61
2023-01-08T07:38:09.045Z,1.63
2023-01-08T07:40:39.277Z,1.69
2023-01-08T07:43:07.516Z,1.76
2023-01-08T07:45:35.489Z,1.84
2023-01-08T07:48:03.887Z,1.93
2023-01-08T07:50:33.008Z,2.01
2023-01-08T07:53:01.779Z,2.08
2023-01-08T07:55:31.393Z,2.13
2023-01-08T07:57:59.563Z,2.20
2023-01-08T08:00:27.919Z,2.27
2023-01-08T08:02:56.046Z,2.36
2023-01-08T08:05:24.143Z,2.45
2023-01-08T08:07:52.092Z,2.53
2023-01-08T08:10:20.104Z,2.60
2023-01-08T08:12:48.073Z,2.67
2023-01-08T08:15:16.172Z,2.75
2023-01-08T08:17:48.335Z,2.84
2023-01-08T08:20:16.725Z,2.94
2023-01-08T08:22:45.739Z,3.02
2023-01-08T08:25:16.363Z,3.10
2023-01-08T08:27:45.667Z,3.16
2023-01-08T08:30:14.255Z,3.25
2023-01-08T08:32:42.205Z,3.36
2023-01-08T08:35:10.404Z,3.45
2023-01-08T08:37:38.471Z,3.52
2023-01-08T08:40:07.249Z,3.57
2023-01-08T08:42:35.329Z,3.60
2023-01-08T08:45:03.796Z,3.62
2023-01-08T08:48:07.763Z,3.66
2023-01-08T08:50:36.273Z,3.70
2023-01-08T08:53:06.339Z,3.76
2023-01-08T08:55:34.742Z,3.83
2023-01-08T08:58:05.503Z,3.90
2023-01-08T09:00:34.138Z,3.94
2023-01-08T09:03:02.217Z,3.96
2023-01-08T09:05:30.670Z,3.99
2023-01-08T09:07:58.733Z,4.04
2023-01-08T09:10:27.118Z,4.06
2023-01-08T09:12:55.225Z,4.10
2023-01-08T09:15:23.260Z,4.12
2023-01-08T09:17:56.317Z,4.13
2023-01-08T09:20:26.346Z,4.14
2023-01-08T09:22:54.679Z,4.14
2023-01-08T09:25:22.641Z,4.10
2023-01-08T09:27:59.358Z,4.09
2023-01-08T09:30:27.583Z,4.12
2023-01-08T09:33:02.208Z,4.11
2023-01-08T09:35:32.220Z,4.10
2023-01-08T09:38:00.394Z,4.08
2023-01-08T09:40:55.434Z,4.06
2023-01-08T09:43:25.724Z,4.05
2023-01-08T09:46:00.789Z,4.07
2023-01-08T09:48:31.931Z,4.10
2023-01-08T09:50:59.974Z,4.12
2023-01-08T09:53:28.336Z,4.11
2023-01-08T09:56:09.743Z,4.10
2023-01-08T09:58:46.754Z,4.08
2023-01-08T10:01:17.235Z,4.07
2023-01-08T10:03:53.249Z,4.11
2023-01-08T10:06:24.466Z,4.16
2023-01-08T10:08:52.701Z,4.23
2023-01-08T10:11:21.919Z,4.30
2023-01-08T10:13:56.483Z,4.38
2023-01-08T10:16:33.919Z,4.42
2023-01-08T10:19:53.452Z,4.43
2023-01-08T10:22:25.263Z,4.42
2023-01-08T10:24:53.263Z,4.44
2023-01-08T10:27:24.068Z,4.47
2023-01-08T10:29:53.392Z,4.48
2023-01-08T10:32:34.752Z,4.48
2023-01-08T10:35:07.923Z,4.53
2023-01-08T10:37:44.890Z,4.65
2023-01-08T10:40:42.414Z,4.73
2023-01-08T10:43:37.681Z,4.82
2023-01-08T10:46:08.866Z,4.88
2023-01-08T10:48:48.289Z,4.98
2023-01-08T10:51:20.579Z,5.12
2023-01-08T10:53:49.059Z,5.26
2023-01-08T10:56:21.176Z,5.43
2023-01-08T10:58:50.439Z,5.59
2023-01-08T11:01:24.256Z,5.67
2023-01-08T11:03:59.923Z,5.72
2023-01-08T11:06:34.163Z,5.71
2023-01-08T11:09:14.348Z,5.70
2023-01-08T11:13:04.829Z,5.67
2023-01-08T11:15:42.082Z,5.66
2023-01-08T11:18:22.247Z,5.73
2023-01-08T11:21:47.931Z,5.80
2023-01-08T11:24:21.321Z,5.87
2023-01-08T11:26:53.875Z,5.87
2023-01-08T11:29:57.993Z,5.94
2023-01-08T11:32:35.089Z,6.09
2023-01-08T11:35:14.095Z,6.15
2023-01-08T11:38:08.579Z,6.31
2023-01-08T11:40:55.241Z,6.70
2023-01-08T11:43:42.126Z,7.52
2023-01-08T11:46:48.672Z,8.34
2023-01-08T11:49:36.123Z,8.93
2023-01-08T11:52:17.638Z,9.50
2023-01-08T11:55:10.764Z,9.98
2023-01-08T11:58:14.242Z,10.47
2023-01-08T12:01:20.865Z,10.99
2023-01-08T12:04:13.476Z,10.98
2023-01-08T12:07:01.057Z,10.69
2023-01-08T12:09:41.317Z,10.70
2023-01-08T12:12:37.762Z,10.78
2023-01-08T12:15:26.750Z,11.21
2023-01-08T12:18:06.945Z,11.84
2023-01-08T12:20:43.611Z,12.52
2023-01-08T12:23:43.080Z,13.03
2023-01-08T12:26:32.676Z,13.52
2023-01-08T12:29:12.462Z,13.97
2023-01-08T12:31:46.333Z,14.35
2023-01-08T12:34:27.872Z,14.77
2023-01-08T12:37:11.304Z,15.24
2023-01-08T12:39:56.874Z,15.59
2023-01-08T12:42:29.751Z,15.99
2023-01-08T12:45:00.976Z,16.49
2023-01-08T12:47:35.743Z,16.97
2023-01-08T12:50:06.702Z,17.41
2023-01-08T12:53:00.234Z,17.74
2023-01-08T12:55:51.931Z,18.01
2023-01-08T12:58:25.772Z,17.93
2023-01-08T13:01:07.672Z,17.83
2023-01-08T13:03:36.349Z,18.00
2023-01-08T13:06:14.988Z,18.24
2023-01-08T13:09:05.112Z,18.48
2023-01-08T13:11:37.695Z,19.00
2023-01-08T13:14:11.929Z,18.92
2023-01-08T13:16:42.377Z,18.53
2023-01-08T13:19:28.083Z,18.41
2023-01-08T13:21:58.842Z,18.00
2023-01-08T13:24:31.543Z,17.60
2023-01-08T13:27:14.946Z,17.23
2023-01-08T13:29:50.041Z,16.88
2023-01-08T13:32:42.248Z,16.68
2023-01-08T13:35:22.750Z,16.46
2023-01-08T13:37:53.417Z,16.39
2023-01-08T13:41:00.826Z,16.31
2023-01-08T13:43:31.713Z,16.34
2023-01-08T13:46:02.520Z,16.49
2023-01-08T13:48:49.424Z,16.63
2023-01-08T13:51:44.507Z,17.18
2023-01-08T13:54:20.008Z,17.67
2023-01-08T13:56:54.307Z,17.29
2023-01-08T13:59:31.363Z,16.43
2023-01-08T14:02:01.486Z,15.27
2023-01-08T14:04:29.635Z,14.24
2023-01-08T14:07:14.922Z,13.41
2023-01-08T14:09:42.832Z,12.61
2023-01-08T14:12:23.171Z,11.93
2023-01-08T14:14:58.934Z,11.12
2023-01-08T14:17:32.380Z,10.49
2023-01-08T14:20:00.432Z,10.03
2023-01-08T14:22:33.856Z,9.66
2023-01-08T14:25:06.608Z,9.29
2023-01-08T14:27:35.435Z,8.94
2023-01-08T14:30:16.229Z,8.62
2023-01-08T14:32:45.353Z,8.27
2023-01-08T14:35:21.074Z,7.97
2023-01-08T14:37:49.171Z,7.68
2023-01-08T14:40:28.049Z,7.42
2023-01-08T14:42:57.789Z,7.17
2023-01-08T14:45:34.952Z,6.90
2023-01-08T14:48:16.272Z,6.62
2023-01-08T14:51:00.331Z,6.39
2023-01-08T14:54:06.511Z,6.15
2023-01-08T14:56:36.369Z,5.78
2023-01-08T14:59:11.980Z,5.30
2023-01-08T15:01:40.548Z,4.94
2023-01-08T15:04:18.726Z,4.81
2023-01-08T15:06:47.203Z,4.72
2023-01-08T15:09:30.241Z,4.64
2023-01-08T15:12:01.007Z,4.49
2023-01-08T15:14:31.241Z,4.23
2023-01-08T15:17:08.132Z,3.96
2023-01-08T15:19:42.480Z,3.70
2023-01-08T15:22:32.868Z,3.58
2023-01-08T15:25:04.725Z,3.41
2023-01-08T15:27:37.462Z,3.29
2023-01-08T15:30:09.440Z,3.18
2023-01-08T15:32:39.219Z,3.05
2023-01-08T15:35:18.851Z,2.94
2023-01-08T15:37:47.041Z,2.78
2023-01-08T15:40:15.208Z,2.64
2023-01-08T15:43:02.588Z,2.57
2023-01-08T15:45:34.392Z,2.49
2023-01-08T15:48:02.929Z,2.43
2023-01-08T15:50:37.946Z,2.40
2023-01-08T15:53:10.271Z,2.30
2023-01-08T15:55:38.386Z,2.22
2023-01-08T15:58:06.328Z,2.17
2023-01-08T16:00:34.309Z,2.09
2023-01-08T16:03:07.344Z,2.04
2023-01-08T16:05:36.836Z,2.02
2023-01-08T16:08:05.781Z,1.97
2023-01-08T16:10:34.410Z,1.86
2023-01-08T16:13:02.437Z,1.73
2023-01-08T16:15:31.118Z,1.61
2023-01-08T16:17:59.731Z,1.54
2023-01-08T16:20:27.790Z,1.49
2023-01-08T16:22:57.339Z,1.54
2023-01-08T16:25:25.475Z,1.63
2023-01-08T16:27:54.823Z,1.64
2023-01-08T16:30:23.786Z,1.58
2023-01-08T16:32:53.411Z,1.50
2023-01-08T16:35:22.400Z,1.45
2023-01-08T16:37:50.459Z,1.39
2023-01-08T16:40:48.019Z,1.32
2023-01-08T16:43:16.028Z,1.22
2023-01-08T16:45:49.617Z,1.14
2023-01-08T16:48:18.763Z,1.09
2023-01-08T16:50:47.205Z,1.01
2023-01-08T16:53:17.609Z,0.97
2023-01-08T16:55:45.560Z,0.97
2023-01-08T16:58:13.926Z,0.96
2023-01-08T17:00:43.150Z,1.00
2023-01-08T17:03:11.113Z,1.07
2023-01-08T17:05:39.167Z,1.06
2023-01-08T17:08:08.424Z,1.03
2023-01-08T17:10:39.823Z,1.03
2023-01-08T17:13:07.885Z,1.06
2023-01-08T17:15:40.425Z,1.10
2023-01-08T17:18:10.503Z,1.15
2023-01-08T17:20:38.478Z,1.25
2023-01-08T17:23:06.476Z,1.33
2023-01-08T17:25:34.455Z,1.36
2023-01-08T17:28:02.350Z,1.37
2023-01-08T17:30:30.358Z,1.39
2023-01-08T17:32:58.295Z,1.39
2023-01-08T17:35:26.259Z,1.37
2023-01-08T17:37:54.232Z,1.34
2023-01-08T17:40:22.182Z,1.33
2023-01-08T17:42:50.237Z,1.31
2023-01-08T17:45:18.298Z,1.22
2023-01-08T17:47:46.361Z,1.21
2023-01-08T17:50:14.351Z,1.28
2023-01-08T17:52:42.339Z,1.37
2023-01-08T17:55:10.933Z,1.42
2023-01-08T17:57:39.397Z,1.41
2023-01-08T18:00:08.037Z,1.29
2023-01-08T18:02:36.758Z,1.25
2023-01-08T18:05:05.427Z,1.30
2023-01-08T18:07:34.594Z,1.38
2023-01-08T18:10:05.603Z,1.44
2023-01-08T18:12:33.681Z,1.48
2023-01-08T18:15:02.655Z,1.53
2023-01-08T18:17:32.160Z,1.55
2023-01-08T18:20:00.196Z,1.60
2023-01-08T18:22:28.265Z,1.65
2023-01-08T18:24:58.418Z,1.70
2023-01-08T18:27:26.451Z,1.83
2023-01-08T18:29:54.907Z,1.99
2023-01-08T18:32:26.151Z,2.13
2023-01-08T18:34:54.171Z,2.22
2023-01-08T18:37:23.665Z,2.28
2023-01-08T18:39:51.729Z,2.29
2023-01-08T18:42:25.978Z,2.31
2023-01-08T18:44:56.194Z,2.34
2023-01-08T18:47:27.149Z,2.33
2023-01-08T18:49:58.753Z,2.29
2023-01-08T18:52:26.791Z,2.26
2023-01-08T18:54:54.709Z,2.23
2023-01-08T18:57:22.925Z,2.28
2023-01-08T18:59:51.419Z,2.34
2023-01-08T19:02:22.631Z,2.43
2023-01-08T19:04:50.716Z,2.54
2023-01-08T19:07:20.276Z,2.64
2023-01-08T19:09:48.449Z,2.70
2023-01-08T19:12:16.474Z,2.72
2023-01-08T19:14:46.351Z,2.74
2023-01-08T19:17:15.110Z,2.78
2023-01-08T19:19:43.194Z,2.84
2023-01-08T19:22:11.372Z,2.93
2023-01-08T19:25:24.188Z,2.98
2023-01-08T19:27:52.457Z,2.94
2023-01-08T19:30:20.721Z,2.95
2023-01-08T19:32:49.051Z,2.95
2023-01-08T19:35:17.259Z,2.93
2023-01-08T19:37:45.400Z,2.88
2023-01-08T19:40:13.797Z,2.85
2023-01-08T19:43:00.555Z,2.81
2023-01-08T19:45:28.823Z,2.74
2023-01-08T19:47:57.037Z,2.69
2023-01-08T19:50:25.111Z,2.69
2023-01-08T19:52:53.599Z,2.69
2023-01-08T19:55:22.368Z,2.65
2023-01-08T19:57:51.302Z,2.71
2023-01-08T20:00:22.512Z,2.70
2023-01-08T20:02:51.782Z,2.63
2023-01-08T20:05:20.598Z,2.53
2023-01-08T20:07:52.039Z,2.51
2023-01-08T20:10:20.166Z,2.55
2023-01-08T20:12:48.167Z,2.62
2023-01-08T20:15:22.287Z,2.64
2023-01-08T20:17:50.854Z,2.63
2023-01-08T20:20:18.956Z,2.57
2023-01-08T20:22:47.049Z,2.53
2023-01-08T20:25:15.560Z,2.49
2023-01-08T20:27:43.791Z,2.47
2023-01-08T20:30:14.725Z,2.48
2023-01-08T20:32:44.183Z,2.51
2023-01-08T20:35:12.244Z,2.57
2023-01-08T20:37:40.464Z,2.64
2023-01-08T20:40:09.171Z,2.71
2023-01-08T20:42:37.147Z,2.81
2023-01-08T20:45:05.559Z,2.81
2023-01-08T20:47:35.156Z,3.07
2023-01-08T20:50:12.367Z,3.21
2023-01-08T20:52:47.720Z,3.35
2023-01-08T20:55:17.525Z,3.46
2023-01-08T20:57:46.596Z,3.51
2023-01-08T21:00:15.048Z,3.57
2023-01-08T21:02:44.792Z,3.61
2023-01-08T21:05:13.103Z,3.67
2023-01-08T21:07:41.717Z,3.71
2023-01-08T21:10:12.601Z,3.71
2023-01-08T21:12:42.539Z,3.69
2023-01-08T21:15:13.028Z,3.64
2023-01-08T21:17:41.694Z,3.59
2023-01-08T21:20:36.855Z,3.57
2023-01-08T21:23:04.966Z,3.62
2023-01-08T21:25:35.244Z,3.69
2023-01-08T21:28:03.870Z,3.74
2023-01-08T21:30:41.330Z,3.78
2023-01-08T21:33:10.930Z,3.81
2023-01-08T21:35:38.953Z,3.82
2023-01-08T21:38:07.132Z,3.76
2023-01-08T21:40:35.203Z,3.74
2023-01-08T21:43:22.776Z,3.71
2023-01-08T21:46:11.560Z,3.71
2023-01-08T21:48:40.133Z,3.74
2023-01-08T21:51:33.365Z,3.77
2023-01-08T21:54:02.437Z,3.80
2023-01-08T21:56:31.151Z,3.85
2023-01-08T21:58:59.429Z,3.96
2023-01-08T22:01:27.823Z,4.08
2023-01-08T22:03:56.913Z,4.20
2023-01-08T22:10:41.365Z,4.37
2023-01-08T22:13:09.477Z,4.38
2023-01-08T22:15:37.746Z,4.42
2023-01-08T22:18:05.957Z,4.45
2023-01-08T22:20:34.270Z,4.50
2023-01-08T22:23:02.653Z,4.56
2023-01-08T22:25:30.909Z,4.61
2023-01-08T22:27:58.869Z,4.65
2023-01-08T22:30:27.190Z,4.67
2023-01-08T22:32:55.257Z,4.70
2023-01-08T22:35:23.295Z,4.75
2023-01-08T22:37:51.302Z,4.80
2023-01-08T22:40:19.380Z,4.82
2023-01-08T22:42:47.419Z,4.80
2023-01-08T22:45:15.452Z,4.78
2023-01-08T22:47:43.499Z,4.77
2023-01-08T22:50:12.412Z,4.77
2023-01-08T22:52:40.551Z,4.79
2023-01-08T22:55:08.942Z,4.78
2023-01-08T22:57:37.021Z,4.76
2023-01-08T23:00:07.837Z,4.74
2023-01-08T23:02:37.214Z,4.74
2023-01-08T23:05:05.640Z,4.77
2023-01-08T23:07:33.678Z,4.80
2023-01-08T23:10:02.275Z,4.81
2023-01-08T23:12:34.418Z,4.81
2023-01-08T23:15:56.383Z,4.81
2023-01-08T23:18:24.359Z,4.81
2023-01-08T23:20:52.510Z,4.84
2023-01-08T23:23:20.430Z,4.88
2023-01-08T23:25:48.410Z,4.93
2023-01-08T23:28:16.662Z,4.95
2023-01-08T23:30:44.742Z,4.94
2023-01-08T23:33:13.050Z,4.95
2023-01-08T23:36:02.793Z,5.03
2023-01-08T23:38:31.114Z,5.05
2023-01-08T23:40:59.572Z,5.07
2023-01-08T23:43:27.860Z,5.09
2023-01-08T23:47:14.274Z,5.09
2023-01-08T23:49:42.507Z,5.06
2023-01-08T23:52:10.579Z,5.06
2023-01-08T23:54:38.757Z,5.06
2023-01-08T23:57:07.190Z,5.05
